createdAt,value
2022-12-18T00:00:02.905Z,1.68
2022-12-18T00:02:48.011Z,1.93
2022-12-18T00:05:33.276Z,1.93
2022-12-18T00:08:18.118Z,1.90
2022-12-18T00:11:03.054Z,1.71
2022-12-18T00:13:52.039Z,1.85
2022-12-18T00:16:36.915Z,1.85
2022-12-18T00:19:21.849Z,1.67
2022-12-18T00:22:06.715Z,1.96
2022-12-18T00:24:51.590Z,1.82
2022-12-18T00:27:36.369Z,1.58
2022-12-18T00:30:21.232Z,1.88
2022-12-18T00:33:06.123Z,2.25
2022-12-18T00:35:50.971Z,1.94
2022-12-18T00:38:35.881Z,1.96
2022-12-18T00:41:20.683Z,1.72
2022-12-18T00:44:05.598Z,1.86
2022-12-18T00:46:50.512Z,1.90
2022-12-18T00:49:35.513Z,1.60
2022-12-18T00:52:20.293Z,1.97
2022-12-18T00:55:06.553Z,1.72
2022-12-18T00:57:51.710Z,1.81
2022-12-18T01:00:36.646Z,2.14
2022-12-18T01:03:21.472Z,1.72
2022-12-18T01:06:06.320Z,1.83
2022-12-18T01:08:51.469Z,1.93
2022-12-18T01:11:36.222Z,1.82
2022-12-18T01:14:21.228Z,1.86
2022-12-18T01:17:06.140Z,2.20
2022-12-18T01:19:51.201Z,1.03
2022-12-18T01:22:36.033Z,1.19
2022-12-18T01:25:20.853Z,1.62
2022-12-18T01:28:05.923Z,0.87
2022-12-18T01:30:50.709Z,1.25
2022-12-18T01:33:35.714Z,1.74
2022-12-18T01:36:20.965Z,1.75
2022-12-18T01:39:06.017Z,0.94
2022-12-18T01:41:50.877Z,0.43
2022-12-18T01:44:35.801Z,0.51
2022-12-18T01:47:20.840Z,0.59
2022-12-18T01:50:05.755Z,0.59
2022-12-18T01:52:50.595Z,0.99
2022-12-18T01:55:35.583Z,0.07
2022-12-18T01:58:20.414Z,0.41
2022-12-18T02:01:05.474Z,1.06
2022-12-18T02:03:50.302Z,0.38
2022-12-18T02:06:35.079Z,0.15
2022-12-18T02:09:19.876Z,0.15
2022-12-18T02:12:04.760Z,-0.07
2022-12-18T02:14:49.665Z,-0.21
2022-12-18T02:17:34.526Z,-0.61
2022-12-18T02:20:19.521Z,0.14
2022-12-18T02:23:04.450Z,-0.27
2022-12-18T02:25:49.265Z,-0.16
2022-12-18T02:28:34.108Z,0.16
2022-12-18T02:31:19.040Z,0.08
2022-12-18T02:34:03.955Z,0.69
2022-12-18T02:36:49.037Z,0.40
2022-12-18T02:39:33.881Z,0.24
2022-12-18T02:42:18.991Z,-0.13
2022-12-18T02:45:03.974Z,-0.24
2022-12-18T02:47:48.861Z,-0.12
2022-12-18T02:50:33.797Z,-0.38
2022-12-18T02:53:18.760Z,0.27
2022-12-18T02:56:03.533Z,-0.17
2022-12-18T02:58:48.537Z,-0.04
2022-12-18T03:01:33.727Z,0.41
2022-12-18T03:04:19.005Z,0.33
2022-12-18T03:07:03.997Z,-0.45
2022-12-18T03:09:48.889Z,-0.23
2022-12-18T03:12:33.882Z,-0.12
2022-12-18T03:15:18.789Z,-0.54
2022-12-18T03:18:03.681Z,0.22
2022-12-18T03:20:48.605Z,0.83
2022-12-18T03:23:33.530Z,0.22
2022-12-18T03:26:18.584Z,0.82
2022-12-18T03:29:03.426Z,0.80
2022-12-18T03:31:48.460Z,0.81
2022-12-18T03:34:33.305Z,0.73
2022-12-18T03:37:18.406Z,0.27
2022-12-18T03:40:03.295Z,0.73
2022-12-18T03:42:48.338Z,0.78
2022-12-18T03:45:33.239Z,0.57
2022-12-18T03:48:18.190Z,1.11
2022-12-18T03:51:03.180Z,1.31
2022-12-18T03:53:48.100Z,1.61
2022-12-18T03:56:33.012Z,1.60
2022-12-18T03:59:17.962Z,1.41
2022-12-18T04:02:02.895Z,1.69
2022-12-18T04:04:47.949Z,1.84
2022-12-18T04:07:32.956Z,1.00
2022-12-18T04:10:18.001Z,0.44
2022-12-18T04:13:02.919Z,0.83
2022-12-18T04:15:47.916Z,1.33
2022-12-18T04:18:32.798Z,1.63
2022-12-18T04:21:17.802Z,1.48
2022-12-18T04:24:02.579Z,1.53
2022-12-18T04:26:47.576Z,1.11
2022-12-18T04:29:32.262Z,1.06
2022-12-18T04:32:17.253Z,0.99
2022-12-18T04:35:02.067Z,1.19
2022-12-18T04:37:47.024Z,1.30
2022-12-18T04:40:31.911Z,1.29
2022-12-18T04:43:16.880Z,1.34
2022-12-18T04:46:01.816Z,0.98
2022-12-18T04:48:46.554Z,1.17
2022-12-18T04:51:31.491Z,1.24
2022-12-18T04:54:16.376Z,1.42
2022-12-18T04:57:01.269Z,1.40
2022-12-18T04:59:46.203Z,1.48
2022-12-18T05:02:31.162Z,1.45
2022-12-18T05:05:16.523Z,1.00
2022-12-18T05:08:01.342Z,0.55
2022-12-18T05:10:46.895Z,0.13
2022-12-18T05:13:31.777Z,0.58
2022-12-18T05:16:16.845Z,0.46
2022-12-18T05:19:01.627Z,0.30
2022-12-18T05:21:46.665Z,-0.28
2022-12-18T05:24:31.608Z,0.66
2022-12-18T05:27:16.609Z,1.18
2022-12-18T05:30:01.462Z,1.43
2022-12-18T05:32:46.367Z,1.19
2022-12-18T05:35:31.334Z,0.94
2022-12-18T05:38:16.251Z,1.08
2022-12-18T05:41:01.134Z,1.42
2022-12-18T05:43:45.981Z,1.34
2022-12-18T05:46:30.991Z,0.59
2022-12-18T05:49:15.949Z,0.27
2022-12-18T05:52:00.701Z,0.58
2022-12-18T05:54:45.670Z,0.79
2022-12-18T05:57:30.677Z,0.72
2022-12-18T06:00:15.644Z,0.59
2022-12-18T06:03:00.570Z,-0.21
2022-12-18T06:05:45.489Z,-0.06
2022-12-18T06:08:31.504Z,-0.15
2022-12-18T06:11:16.481Z,0.19
2022-12-18T06:14:01.373Z,-0.32
2022-12-18T06:16:46.260Z,0.10
2022-12-18T06:19:31.310Z,0.49
2022-12-18T06:22:16.261Z,0.48
2022-12-18T06:25:01.318Z,0.62
2022-12-18T06:27:46.788Z,0.48
2022-12-18T06:30:31.618Z,0.58
2022-12-18T06:33:16.711Z,0.77
2022-12-18T06:36:01.544Z,1.06
2022-12-18T06:38:47.063Z,1.26
2022-12-18T06:41:32.007Z,1.42
2022-12-18T06:44:16.968Z,1.73
2022-12-18T06:47:01.648Z,0.76
2022-12-18T06:49:46.511Z,1.44
2022-12-18T06:52:31.483Z,1.69
2022-12-18T06:55:16.393Z,1.49
2022-12-18T06:58:01.263Z,1.70
2022-12-18T07:00:46.178Z,1.00
2022-12-18T07:03:31.128Z,0.80
2022-12-18T07:06:15.868Z,1.34
2022-12-18T07:09:00.729Z,1.67
2022-12-18T07:11:45.537Z,0.54
2022-12-18T07:14:30.492Z,1.48
2022-12-18T07:17:15.371Z,1.97
2022-12-18T07:20:00.303Z,1.71
2022-12-18T07:22:45.334Z,1.70
2022-12-18T07:25:30.261Z,1.71
2022-12-18T07:28:17.557Z,1.94
2022-12-18T07:31:02.468Z,2.21
2022-12-18T07:33:47.405Z,2.43
2022-12-18T07:36:32.249Z,2.11
2022-12-18T07:39:17.057Z,1.86
2022-12-18T07:42:01.977Z,1.80
2022-12-18T07:44:46.885Z,2.12
2022-12-18T07:47:31.889Z,1.92
2022-12-18T07:50:16.635Z,1.63
2022-12-18T07:53:01.596Z,1.95
2022-12-18T07:56:25.000Z,1.71
2022-12-18T07:58:51.403Z,1.46
2022-12-18T08:01:36.528Z,1.13
2022-12-18T08:04:21.744Z,1.51
2022-12-18T08:07:06.605Z,1.52
2022-12-18T08:09:51.476Z,2.10
2022-12-18T08:12:36.403Z,2.21
2022-12-18T08:15:21.271Z,1.69
2022-12-18T08:18:10.122Z,2.12
2022-12-18T08:20:57.525Z,2.45
2022-12-18T08:23:43.502Z,2.53
2022-12-18T08:26:28.979Z,2.66
2022-12-18T08:29:17.319Z,1.85
2022-12-18T08:32:06.450Z,2.05
2022-12-18T08:34:51.352Z,2.05
2022-12-18T08:37:36.188Z,2.25
2022-12-18T08:40:21.106Z,2.10
2022-12-18T08:43:05.970Z,1.07
2022-12-18T08:45:51.064Z,1.75
2022-12-18T08:48:35.875Z,1.66
2022-12-18T08:51:20.792Z,1.37
2022-12-18T08:54:06.483Z,1.98
2022-12-18T08:56:51.499Z,2.03
2022-12-18T08:59:36.363Z,1.91
2022-12-18T09:02:21.396Z,2.46
2022-12-18T09:05:06.680Z,2.57
2022-12-18T09:07:51.529Z,2.64
2022-12-18T09:10:41.695Z,3.15
2022-12-18T09:13:27.953Z,3.00
2022-12-18T09:16:12.797Z,2.95
2022-12-18T09:18:57.714Z,3.45
2022-12-18T09:21:47.771Z,3.51
2022-12-18T09:24:33.541Z,3.48
2022-12-18T09:27:18.324Z,1.99
2022-12-18T09:30:03.632Z,2.15
2022-12-18T09:32:48.476Z,1.48
2022-12-18T09:35:33.466Z,2.66
2022-12-18T09:38:18.828Z,2.18
2022-12-18T09:41:03.973Z,2.19
2022-12-18T09:43:48.881Z,2.18
2022-12-18T09:46:33.778Z,2.76
2022-12-18T09:49:18.679Z,2.34
2022-12-18T09:52:04.115Z,2.36
2022-12-18T09:54:49.144Z,3.08
2022-12-18T09:57:33.984Z,2.14
2022-12-18T10:00:18.895Z,2.43
2022-12-18T10:03:04.048Z,2.52
2022-12-18T10:05:49.285Z,2.93
2022-12-18T10:08:34.143Z,3.37
2022-12-18T10:11:19.096Z,3.38
2022-12-18T10:14:04.070Z,3.24
2022-12-18T10:16:48.938Z,3.67
2022-12-18T10:19:34.025Z,3.76
2022-12-18T10:22:19.075Z,3.98
2022-12-18T10:25:04.333Z,4.09
2022-12-18T10:27:49.184Z,3.85
2022-12-18T10:30:34.100Z,3.93
2022-12-18T10:33:18.958Z,3.48
2022-12-18T10:36:03.893Z,3.70
2022-12-18T10:38:48.839Z,4.20
2022-12-18T10:41:33.728Z,4.17
2022-12-18T10:44:18.601Z,4.15
2022-12-18T10:47:06.183Z,4.29
2022-12-18T10:49:53.902Z,3.30
2022-12-18T10:52:45.058Z,2.78
2022-12-18T10:55:32.969Z,3.25
2022-12-18T10:58:22.183Z,3.34
2022-12-18T11:01:10.316Z,3.31
2022-12-18T11:04:00.313Z,3.50
2022-12-18T11:06:47.242Z,3.43
2022-12-18T11:09:32.139Z,2.41
2022-12-18T11:12:17.148Z,3.57
2022-12-18T11:15:02.105Z,4.35
2022-12-18T11:17:46.943Z,4.00
2022-12-18T11:20:31.884Z,3.86
2022-12-18T11:23:16.751Z,4.55
2022-12-18T11:26:01.706Z,3.94
2022-12-18T11:28:46.681Z,4.87
2022-12-18T11:31:32.092Z,5.09
2022-12-18T11:34:32.448Z,4.39
2022-12-18T11:37:17.711Z,4.43
2022-12-18T11:40:02.697Z,4.46
2022-12-18T11:42:47.510Z,4.69
2022-12-18T11:45:32.465Z,5.00
2022-12-18T11:48:17.429Z,5.16
2022-12-18T11:51:02.425Z,5.52
2022-12-18T11:53:47.276Z,5.03
2022-12-18T11:56:32.143Z,4.86
2022-12-18T11:59:17.115Z,4.95
2022-12-18T12:02:02.053Z,4.14
2022-12-18T12:04:48.460Z,4.80
2022-12-18T12:07:33.370Z,5.00
2022-12-18T12:10:18.307Z,5.45
2022-12-18T12:13:03.138Z,5.30
2022-12-18T12:15:48.101Z,5.32
2022-12-18T12:18:32.889Z,5.80
2022-12-18T12:21:17.741Z,6.03
2022-12-18T12:24:02.860Z,5.55
2022-12-18T12:26:47.704Z,6.43
2022-12-18T12:29:32.529Z,6.31
2022-12-18T12:32:17.334Z,6.66
2022-12-18T12:35:07.770Z,5.19
2022-12-18T12:37:54.451Z,6.17
2022-12-18T12:41:02.394Z,5.36
2022-12-18T12:43:50.675Z,4.98
2022-12-18T12:46:36.168Z,4.99
2022-12-18T12:49:21.671Z,4.35
2022-12-18T12:52:08.147Z,5.44
2022-12-18T12:54:52.934Z,4.55
2022-12-18T12:57:38.373Z,5.56
2022-12-18T13:00:23.295Z,5.74
2022-12-18T13:03:08.167Z,5.90
2022-12-18T13:05:53.591Z,6.38
2022-12-18T13:08:39.111Z,5.56
2022-12-18T13:11:23.941Z,4.68
2022-12-18T13:14:09.821Z,4.63
2022-12-18T13:16:56.270Z,5.05
2022-12-18T13:19:41.724Z,4.93
2022-12-18T13:22:26.712Z,5.69
2022-12-18T13:25:11.737Z,5.17
2022-12-18T13:27:56.715Z,4.57
2022-12-18T13:30:41.675Z,5.17
2022-12-18T13:33:26.453Z,5.61
2022-12-18T13:36:11.899Z,6.17
2022-12-18T13:38:56.750Z,6.38
2022-12-18T13:41:42.146Z,6.22
2022-12-18T13:44:27.058Z,5.76
2022-12-18T13:47:12.005Z,5.09
2022-12-18T13:49:58.639Z,5.49
2022-12-18T13:52:43.526Z,6.07
2022-12-18T13:55:28.466Z,6.40
2022-12-18T13:58:13.297Z,5.90
2022-12-18T14:00:58.311Z,6.48
2022-12-18T14:03:43.665Z,6.46
2022-12-18T14:06:29.573Z,5.91
2022-12-18T14:09:20.339Z,6.61
2022-12-18T14:12:06.550Z,5.57
2022-12-18T14:14:52.536Z,5.38
2022-12-18T14:17:40.243Z,5.70
2022-12-18T14:20:25.088Z,6.16
2022-12-18T14:23:09.888Z,5.89
2022-12-18T14:25:54.940Z,5.17
2022-12-18T14:28:39.676Z,5.36
2022-12-18T14:31:24.711Z,6.35
2022-12-18T14:34:09.525Z,5.48
2022-12-18T14:36:54.522Z,6.49
2022-12-18T14:39:39.382Z,5.81
2022-12-18T14:42:24.281Z,5.70
2022-12-18T14:45:16.180Z,5.37
2022-12-18T14:48:01.137Z,5.18
2022-12-18T14:50:46.030Z,5.33
2022-12-18T14:53:30.884Z,4.69
2022-12-18T14:56:15.687Z,4.67
2022-12-18T14:59:00.526Z,4.21
2022-12-18T15:01:45.566Z,4.17
2022-12-18T15:04:30.929Z,4.41
2022-12-18T15:07:15.860Z,4.60
2022-12-18T15:10:02.212Z,4.74
2022-12-18T15:12:47.347Z,4.65
2022-12-18T15:15:32.341Z,4.37
2022-12-18T15:18:17.351Z,3.92
2022-12-18T15:21:02.349Z,4.06
2022-12-18T15:23:47.289Z,3.79
2022-12-18T15:26:32.387Z,3.95
2022-12-18T15:29:17.455Z,4.18
2022-12-18T15:32:02.746Z,4.04
2022-12-18T15:34:47.668Z,3.99
2022-12-18T15:37:32.734Z,3.65
2022-12-18T15:40:18.023Z,3.64
2022-12-18T15:43:03.055Z,3.59
2022-12-18T15:45:48.072Z,3.39
2022-12-18T15:48:33.484Z,3.16
2022-12-18T15:51:18.475Z,3.46
2022-12-18T15:54:03.386Z,3.60
2022-12-18T15:56:48.357Z,3.39
2022-12-18T15:59:33.240Z,3.21
2022-12-18T16:02:18.397Z,3.18
2022-12-18T16:05:03.564Z,2.92
2022-12-18T16:07:48.836Z,2.96
2022-12-18T16:10:33.999Z,3.19
2022-12-18T16:13:18.926Z,3.47
2022-12-18T16:16:03.920Z,3.43
2022-12-18T16:18:48.682Z,3.15
2022-12-18T16:21:34.236Z,2.96
2022-12-18T16:24:19.576Z,2.78
2022-12-18T16:27:04.591Z,2.80
2022-12-18T16:29:49.552Z,2.58
2022-12-18T16:32:34.513Z,3.00
2022-12-18T16:35:19.576Z,2.85
2022-12-18T16:38:04.335Z,2.77
2022-12-18T16:40:49.296Z,2.87
2022-12-18T16:43:34.224Z,3.06
2022-12-18T16:46:19.231Z,3.21
2022-12-18T16:49:04.189Z,3.32
2022-12-18T16:51:49.315Z,3.25
2022-12-18T16:54:34.521Z,2.74
2022-12-18T16:57:19.772Z,2.62
2022-12-18T17:00:06.333Z,2.47
2022-12-18T17:02:51.765Z,2.98
2022-12-18T17:05:37.024Z,3.29
2022-12-18T17:08:21.952Z,3.21
2022-12-18T17:11:07.022Z,3.14
2022-12-18T17:13:52.032Z,2.97
2022-12-18T17:16:36.878Z,2.54
2022-12-18T17:19:22.845Z,3.08
2022-12-18T17:22:07.697Z,3.21
2022-12-18T17:24:52.614Z,3.01
2022-12-18T17:27:37.559Z,2.86
2022-12-18T17:30:22.454Z,3.18
2022-12-18T17:33:07.514Z,3.49
2022-12-18T17:35:52.463Z,2.92
2022-12-18T17:38:37.457Z,3.26
2022-12-18T17:41:22.292Z,3.06
2022-12-18T17:44:07.143Z,2.85
2022-12-18T17:46:52.269Z,3.12
2022-12-18T17:49:37.535Z,2.89
2022-12-18T17:52:22.584Z,2.85
2022-12-18T17:55:07.541Z,2.64
2022-12-18T17:57:52.419Z,2.74
2022-12-18T18:00:37.183Z,2.57
2022-12-18T18:03:22.439Z,2.46
2022-12-18T18:06:07.595Z,2.40
2022-12-18T18:08:52.563Z,2.54
2022-12-18T18:11:37.569Z,2.57
2022-12-18T18:14:22.456Z,2.86
2022-12-18T18:17:07.931Z,2.64
2022-12-18T18:19:52.962Z,2.52
2022-12-18T18:22:38.502Z,2.52
2022-12-18T18:25:23.248Z,2.74
2022-12-18T18:28:08.674Z,2.43
2022-12-18T18:30:53.590Z,2.68
2022-12-18T18:33:38.899Z,3.01
2022-12-18T18:36:24.178Z,2.48
2022-12-18T18:39:09.091Z,2.60
2022-12-18T18:41:55.721Z,2.86
2022-12-18T18:44:44.433Z,2.83
2022-12-18T18:47:32.236Z,2.97
2022-12-18T18:50:17.281Z,2.94
2022-12-18T18:53:02.315Z,2.40
2022-12-18T18:55:59.083Z,2.63
2022-12-18T18:58:52.565Z,2.44
2022-12-18T19:01:37.591Z,2.65
2022-12-18T19:04:23.041Z,2.93
2022-12-18T19:07:08.153Z,2.89
2022-12-18T19:09:53.032Z,2.96
2022-12-18T19:12:39.547Z,3.07
2022-12-18T19:15:25.490Z,3.21
2022-12-18T19:18:10.424Z,2.88
2022-12-18T19:20:55.533Z,2.96
2022-12-18T19:23:40.819Z,3.05
2022-12-18T19:26:28.061Z,3.17
2022-12-18T19:29:13.189Z,3.28
2022-12-18T19:31:58.279Z,3.09
2022-12-18T19:34:43.376Z,3.08
2022-12-18T19:37:30.718Z,3.31
2022-12-18T19:40:15.873Z,3.29
2022-12-18T19:43:01.290Z,3.22
2022-12-18T19:45:46.351Z,3.36
2022-12-18T19:48:31.234Z,3.37
2022-12-18T19:51:16.225Z,3.11
2022-12-18T19:54:01.684Z,3.11
2022-12-18T19:56:47.782Z,3.44
2022-12-18T19:59:32.782Z,3.11
2022-12-18T20:02:18.511Z,3.54
2022-12-18T20:05:03.934Z,3.08
2022-12-18T20:07:49.050Z,3.14
2022-12-18T20:10:33.906Z,3.55
2022-12-18T20:13:18.900Z,3.55
2022-12-18T20:16:03.768Z,3.56
2022-12-18T20:18:48.870Z,3.43
2022-12-18T20:21:34.274Z,3.44
2022-12-18T20:24:19.414Z,3.51
2022-12-18T20:27:04.534Z,3.55
2022-12-18T20:29:49.586Z,3.30
2022-12-18T20:32:37.242Z,3.33
2022-12-18T20:35:22.485Z,3.31
2022-12-18T20:38:08.327Z,3.16
2022-12-18T20:40:54.507Z,3.36
2022-12-18T20:43:39.754Z,3.08
2022-12-18T20:46:24.942Z,3.14
2022-12-18T20:49:09.773Z,3.35
2022-12-18T20:51:54.508Z,3.31
2022-12-18T20:54:39.382Z,3.29
2022-12-18T20:57:24.224Z,3.41
2022-12-18T21:00:09.219Z,3.34
2022-12-18T21:02:56.237Z,3.22
2022-12-18T21:05:41.593Z,3.33
2022-12-18T21:08:26.440Z,3.67
2022-12-18T21:11:11.440Z,3.51
2022-12-18T21:13:56.417Z,3.37
2022-12-18T21:16:41.278Z,3.52
2022-12-18T21:19:26.209Z,3.60
2022-12-18T21:22:10.957Z,3.44
2022-12-18T21:24:56.416Z,3.63
2022-12-18T21:27:41.316Z,3.25
2022-12-18T21:30:26.277Z,3.28
2022-12-18T21:33:11.189Z,3.52
2022-12-18T21:35:56.134Z,3.55
2022-12-18T21:38:41.273Z,3.82
2022-12-18T21:41:26.717Z,3.68
2022-12-18T21:44:11.640Z,3.26
2022-12-18T21:47:02.445Z,3.31
2022-12-18T21:49:54.644Z,3.48
2022-12-18T21:52:39.503Z,3.35
2022-12-18T21:55:24.527Z,3.46
2022-12-18T21:58:09.441Z,3.44
2022-12-18T22:00:54.318Z,3.54
2022-12-18T22:03:39.360Z,3.85
2022-12-18T22:06:24.066Z,3.85
2022-12-18T22:09:09.296Z,3.64
2022-12-18T22:11:54.083Z,3.51
2022-12-18T22:14:38.957Z,4.10
2022-12-18T22:17:23.769Z,3.80
2022-12-18T22:20:09.160Z,3.66
2022-12-18T22:22:54.181Z,3.79
2022-12-18T22:25:39.902Z,3.63
2022-12-18T22:28:25.189Z,3.94
2022-12-18T22:31:10.061Z,3.82
2022-12-18T22:33:54.965Z,4.19
2022-12-18T22:36:40.048Z,3.82
2022-12-18T22:39:25.063Z,3.75
2022-12-18T22:42:10.603Z,3.61
2022-12-18T22:44:55.416Z,3.73
2022-12-18T22:47:40.469Z,3.84
2022-12-18T22:50:25.454Z,3.96
2022-12-18T22:53:10.482Z,4.02
2022-12-18T22:55:55.452Z,4.18
2022-12-18T22:58:40.376Z,4.07
2022-12-18T23:01:25.278Z,3.84
2022-12-18T23:04:10.504Z,3.70
2022-12-18T23:06:55.580Z,3.87
2022-12-18T23:09:40.505Z,3.75
2022-12-18T23:12:25.362Z,3.74
2022-12-18T23:15:10.326Z,3.69
2022-12-18T23:17:55.343Z,3.69
2022-12-18T23:20:40.264Z,3.74
2022-12-18T23:23:26.704Z,4.09
2022-12-18T23:26:11.726Z,3.68
2022-12-18T23:28:56.639Z,3.96
2022-12-18T23:31:41.707Z,4.18
2022-12-18T23:34:27.229Z,4.01
2022-12-18T23:37:12.232Z,4.08
2022-12-18T23:39:57.198Z,4.07
2022-12-18T23:42:42.206Z,3.63
2022-12-18T23:45:27.173Z,3.70
2022-12-18T23:48:12.032Z,4.01
2022-12-18T23:50:56.925Z,3.73
2022-12-18T23:53:41.869Z,3.87
2022-12-18T23:56:26.936Z,3.81
2022-12-18T23:59:11.870Z,3.76
